Terminal Aerodrome Forecast
Issued by NWS

Home | Current Version | Previous Version | Text Only | Print | Product List | Glossary On
Versions: 1 2 3 4 5 6 7 8 9 10 11 12 13 14 15 16 17 18 19 20 21 22 23
460
FTUS45 KABQ 271123
TAFLVS
TAF
KLVS 271123Z 2712/2812 VRB05KT P6SM SKC
     FM271700 20012G20KT P6SM FEW110
     FM272100 22017G29KT P6SM VCSH SCT110 SCT200
     FM280200 19012KT P6SM FEW110=

USA.gov is the U.S. government's official web portal to all federal, state and local government web resources and services.